createdAt,value
2018-01-26T00:00:25.166Z,955.18
2018-01-26T00:01:25.183Z,955.18
2018-01-26T00:02:25.200Z,955.23
2018-01-26T00:03:25.225Z,955.22
2018-01-26T00:04:25.235Z,955.23
2018-01-26T00:05:25.254Z,955.24
2018-01-26T00:06:25.270Z,955.25
2018-01-26T00:07:25.288Z,955.22
2018-01-26T00:08:25.305Z,955.26
2018-01-26T00:09:25.322Z,955.23
2018-01-26T00:10:25.347Z,955.23
2018-01-26T00:11:25.360Z,955.29
2018-01-26T00:12:25.376Z,955.3
2018-01-26T00:13:25.391Z,955.33
2018-01-26T00:14:25.409Z,955.33
2018-01-26T00:15:25.428Z,955.31
2018-01-26T00:16:25.446Z,955.32
2018-01-26T00:17:25.462Z,955.29
2018-01-26T00:18:25.478Z,955.27
2018-01-26T00:19:25.497Z,955.26
2018-01-26T00:20:25.515Z,955.28
2018-01-26T00:21:25.530Z,955.25
2018-01-26T00:22:25.549Z,955.3
2018-01-26T00:23:25.569Z,955.3
2018-01-26T00:24:25.582Z,955.29
2018-01-26T00:25:25.599Z,955.31
2018-01-26T00:26:25.617Z,955.31
2018-01-26T00:27:25.633Z,955.27
2018-01-26T00:28:25.652Z,955.27
2018-01-26T00:29:25.673Z,955.22
2018-01-26T00:30:25.685Z,955.21
2018-01-26T00:31:25.701Z,955.17
2018-01-26T00:32:25.719Z,955.19
2018-01-26T00:33:25.737Z,955.15
2018-01-26T00:34:25.754Z,955.14
2018-01-26T00:35:25.769Z,955.15
2018-01-26T00:36:25.787Z,955.14
2018-01-26T00:37:25.805Z,955.12
2018-01-26T00:38:25.822Z,955.15
2018-01-26T00:39:25.838Z,955.16
2018-01-26T00:40:25.859Z,955.16
2018-01-26T00:41:25.873Z,955.15
2018-01-26T00:42:25.891Z,955.15
2018-01-26T00:43:25.907Z,955.15
2018-01-26T00:44:25.925Z,955.09
2018-01-26T00:45:25.942Z,955.14
2018-01-26T00:46:26.160Z,955.16
2018-01-26T00:47:25.975Z,955.13
2018-01-26T00:48:25.994Z,955.13
2018-01-26T00:49:26.010Z,955.1
2018-01-26T00:50:26.027Z,955.12
2018-01-26T00:51:26.043Z,955.11
2018-01-26T00:52:26.063Z,955.09
2018-01-26T00:53:26.079Z,955.16
2018-01-26T00:54:26.097Z,955.12
2018-01-26T00:55:26.118Z,955.16
2018-01-26T00:56:26.131Z,955.15
2018-01-26T00:57:26.149Z,955.19
2018-01-26T00:58:26.164Z,955.22
2018-01-26T00:59:26.183Z,955.18
2018-01-26T01:00:26.199Z,955.15
2018-01-26T01:01:26.216Z,955.18
2018-01-26T01:02:26.234Z,955.14
2018-01-26T01:03:26.252Z,955.16
2018-01-26T01:04:26.269Z,955.13
2018-01-26T01:05:26.287Z,955.16
2018-01-26T01:06:26.304Z,955.1
2018-01-26T01:07:26.327Z,955.1
2018-01-26T01:08:26.338Z,955.1
2018-01-26T01:09:26.356Z,955.12
2018-01-26T01:10:26.375Z,955.1
2018-01-26T01:11:26.391Z,955.16
2018-01-26T01:12:26.408Z,955.1
2018-01-26T01:13:26.427Z,955.08
2018-01-26T01:14:26.446Z,955.11
2018-01-26T01:15:26.459Z,955.13
2018-01-26T01:16:26.477Z,955.09
2018-01-26T01:17:26.494Z,955.07
2018-01-26T01:18:26.512Z,955.05
2018-01-26T01:19:26.529Z,955.04
2018-01-26T01:20:26.548Z,954.99
2018-01-26T01:21:26.563Z,955
2018-01-26T01:22:26.586Z,954.99
2018-01-26T01:23:26.600Z,954.95
2018-01-26T01:24:26.616Z,954.93
2018-01-26T01:25:26.652Z,954.91
2018-01-26T01:26:26.651Z,954.89
2018-01-26T01:27:26.667Z,954.9
2018-01-26T01:28:26.684Z,954.9
2018-01-26T01:29:26.706Z,954.91
2018-01-26T01:30:26.719Z,954.84
2018-01-26T01:31:26.736Z,954.88
2018-01-26T01:32:26.752Z,954.87
2018-01-26T01:33:26.771Z,954.88
2018-01-26T01:34:26.786Z,954.86
2018-01-26T01:35:26.804Z,954.85
2018-01-26T01:36:26.824Z,954.85
2018-01-26T01:37:26.838Z,954.79
2018-01-26T01:38:26.855Z,954.79
2018-01-26T01:39:26.873Z,954.79
2018-01-26T01:40:26.890Z,954.75
2018-01-26T01:41:26.908Z,954.72
2018-01-26T01:42:26.924Z,954.71
2018-01-26T01:43:26.941Z,954.71
2018-01-26T01:44:26.959Z,954.71
2018-01-26T01:45:26.977Z,954.69
2018-01-26T01:46:26.994Z,954.71
2018-01-26T01:47:27.017Z,954.69
2018-01-26T01:48:27.028Z,954.71
2018-01-26T01:49:27.045Z,954.71
2018-01-26T01:50:27.062Z,954.72
2018-01-26T01:51:27.079Z,954.69
2018-01-26T01:52:27.096Z,954.69
2018-01-26T01:53:27.113Z,954.69
2018-01-26T01:54:27.132Z,954.7
2018-01-26T01:55:27.148Z,954.67
2018-01-26T01:56:27.165Z,954.66
2018-01-26T01:57:27.183Z,954.61
2018-01-26T01:58:27.200Z,954.6
2018-01-26T01:59:27.216Z,954.59
2018-01-26T02:00:27.233Z,954.59
2018-01-26T02:01:27.250Z,954.59
2018-01-26T02:02:27.288Z,954.66
2018-01-26T02:03:27.283Z,954.67
2018-01-26T02:04:27.300Z,954.66
2018-01-26T02:05:27.317Z,954.62
2018-01-26T02:06:27.334Z,954.61
2018-01-26T02:07:27.350Z,954.51
2018-01-26T02:08:27.367Z,954.53
2018-01-26T02:09:27.386Z,954.47
2018-01-26T02:10:27.403Z,954.53
2018-01-26T02:11:27.419Z,954.49
2018-01-26T02:12:27.437Z,954.47
2018-01-26T02:13:27.455Z,954.46
2018-01-26T02:14:27.474Z,954.48
2018-01-26T02:15:27.488Z,954.47
2018-01-26T02:16:27.504Z,954.46
2018-01-26T02:17:27.520Z,954.46
2018-01-26T02:18:27.537Z,954.46
2018-01-26T02:19:27.556Z,954.48
2018-01-26T02:20:27.572Z,954.5
2018-01-26T02:21:27.588Z,954.46
2018-01-26T02:22:27.605Z,954.49
2018-01-26T02:23:27.624Z,954.48
2018-01-26T02:24:27.643Z,954.47
2018-01-26T02:25:27.656Z,954.46
2018-01-26T02:26:27.673Z,954.42
2018-01-26T02:27:27.690Z,954.45
2018-01-26T02:28:27.706Z,954.44
2018-01-26T02:29:27.722Z,954.4
2018-01-26T02:30:27.740Z,954.39
2018-01-26T02:31:27.765Z,954.4
2018-01-26T02:32:27.774Z,954.38
2018-01-26T02:33:27.792Z,954.37
2018-01-26T02:34:27.808Z,954.38
2018-01-26T02:35:27.826Z,954.34
2018-01-26T02:36:27.842Z,954.33
2018-01-26T02:37:27.858Z,954.39
2018-01-26T02:38:27.876Z,954.36
2018-01-26T02:39:27.891Z,954.35
2018-01-26T02:40:27.909Z,954.37
2018-01-26T02:41:27.926Z,954.36
2018-01-26T02:42:27.944Z,954.4
2018-01-26T02:43:27.959Z,954.4
2018-01-26T02:44:27.975Z,954.35
2018-01-26T02:45:27.994Z,954.36
2018-01-26T02:46:28.010Z,954.37
2018-01-26T02:47:28.026Z,954.37
2018-01-26T02:48:28.044Z,954.38
2018-01-26T02:49:28.061Z,954.38
2018-01-26T02:50:28.078Z,954.43
2018-01-26T02:51:28.095Z,954.46
2018-01-26T02:52:28.112Z,954.45
2018-01-26T02:53:28.131Z,954.43
2018-01-26T02:54:28.146Z,954.4
2018-01-26T02:55:28.162Z,954.4
2018-01-26T02:56:28.180Z,954.42
2018-01-26T02:57:28.196Z,954.39
2018-01-26T02:58:28.212Z,954.38
2018-01-26T02:59:28.231Z,954.36
2018-01-26T03:00:28.247Z,954.4
2018-01-26T03:01:28.275Z,954.37
2018-01-26T03:02:28.279Z,954.42
2018-01-26T03:03:28.296Z,954.35
2018-01-26T03:04:28.314Z,954.3
2018-01-26T03:05:28.331Z,954.33
2018-01-26T03:06:28.348Z,954.3
2018-01-26T03:07:28.366Z,954.31
2018-01-26T03:08:28.400Z,954.27
2018-01-26T03:09:28.398Z,954.29
2018-01-26T03:10:28.415Z,954.32
2018-01-26T03:11:28.433Z,954.3
2018-01-26T03:12:28.447Z,954.28
2018-01-26T03:13:28.464Z,954.24
2018-01-26T03:14:28.482Z,954.25
2018-01-26T03:15:28.500Z,954.27
2018-01-26T03:16:28.516Z,954.27
2018-01-26T03:17:28.536Z,954.32
2018-01-26T03:18:28.549Z,954.3
2018-01-26T03:19:28.567Z,954.28
2018-01-26T03:20:28.583Z,954.27
2018-01-26T03:21:28.602Z,954.28
2018-01-26T03:22:28.617Z,954.26
2018-01-26T03:23:28.639Z,954.23
2018-01-26T03:24:28.650Z,954.28
2018-01-26T03:25:28.669Z,954.32
2018-01-26T03:26:28.685Z,954.3
2018-01-26T03:27:28.701Z,954.31
2018-01-26T03:28:28.722Z,954.3
2018-01-26T03:29:28.735Z,954.33
2018-01-26T03:30:28.753Z,954.31
2018-01-26T03:31:28.771Z,954.29
2018-01-26T03:32:28.785Z,954.3
2018-01-26T03:33:28.802Z,954.28
2018-01-26T03:34:28.820Z,954.31
2018-01-26T03:35:28.836Z,954.24
2018-01-26T03:36:28.853Z,954.28
2018-01-26T03:37:28.872Z,954.26
2018-01-26T03:38:28.888Z,954.28
2018-01-26T03:39:28.906Z,954.26
2018-01-26T03:40:28.919Z,954.24
2018-01-26T03:41:28.937Z,954.27
2018-01-26T03:42:28.954Z,954.23
2018-01-26T03:43:28.971Z,954.24
2018-01-26T03:44:28.986Z,954.23
2018-01-26T03:45:29.003Z,954.22
2018-01-26T03:46:29.021Z,954.24
2018-01-26T03:47:29.038Z,954.26
2018-01-26T03:48:29.054Z,954.23
2018-01-26T03:49:29.071Z,954.22
2018-01-26T03:50:29.086Z,954.19
2018-01-26T03:51:29.105Z,954.19
2018-01-26T03:52:29.120Z,954.21
2018-01-26T03:53:29.136Z,954.18
2018-01-26T03:54:29.153Z,954.21
2018-01-26T03:55:29.170Z,954.2
2018-01-26T03:56:29.185Z,954.21
2018-01-26T03:57:29.201Z,954.24
2018-01-26T03:58:29.220Z,954.2
2018-01-26T03:59:29.236Z,954.18
2018-01-26T04:00:29.261Z,954.18
2018-01-26T04:01:29.269Z,954.17
2018-01-26T04:02:29.287Z,954.2
2018-01-26T04:03:29.302Z,954.17
2018-01-26T04:04:29.319Z,954.15
2018-01-26T04:05:29.336Z,954.14
2018-01-26T04:06:29.353Z,954.15
2018-01-26T04:07:29.388Z,954.12
2018-01-26T04:08:29.403Z,954.15
2018-01-26T04:09:29.403Z,954.14
2018-01-26T04:10:29.418Z,954.1
2018-01-26T04:11:29.434Z,954.08
2018-01-26T04:12:29.452Z,954.07
2018-01-26T04:13:29.469Z,954.04
2018-01-26T04:14:29.484Z,954.01
2018-01-26T04:15:29.502Z,953.99
2018-01-26T04:16:29.518Z,953.93
2018-01-26T04:17:29.535Z,953.9
2018-01-26T04:18:29.550Z,953.89
2018-01-26T04:19:29.566Z,953.89
2018-01-26T04:20:29.582Z,953.87
2018-01-26T04:21:29.600Z,953.85
2018-01-26T04:22:29.617Z,953.82
2018-01-26T04:23:29.632Z,953.86
2018-01-26T04:24:29.656Z,953.81
2018-01-26T04:25:29.665Z,953.8
2018-01-26T04:26:29.681Z,953.81
2018-01-26T04:27:29.698Z,953.81
2018-01-26T04:28:29.715Z,953.85
2018-01-26T04:29:29.737Z,953.81
2018-01-26T04:30:29.748Z,953.82
2018-01-26T04:31:29.769Z,953.86
2018-01-26T04:32:29.780Z,953.92
2018-01-26T04:33:29.795Z,953.94
2018-01-26T04:34:29.812Z,953.95
2018-01-26T04:35:29.829Z,953.94
2018-01-26T04:36:29.844Z,953.95
2018-01-26T04:37:29.861Z,953.98
2018-01-26T04:38:29.877Z,953.97
2018-01-26T04:39:29.894Z,953.98
2018-01-26T04:40:29.910Z,953.97
2018-01-26T04:41:29.927Z,954.01
2018-01-26T04:42:29.943Z,954.02
2018-01-26T04:43:29.960Z,954.04
2018-01-26T04:44:29.980Z,954.07
2018-01-26T04:45:29.993Z,954.02
2018-01-26T04:46:30.009Z,954.02
2018-01-26T04:47:30.024Z,954.06
2018-01-26T04:48:30.041Z,954.03
2018-01-26T04:49:30.058Z,954.03
2018-01-26T04:50:30.084Z,954.01
2018-01-26T04:51:30.090Z,954.04
2018-01-26T04:52:30.107Z,954.03
2018-01-26T04:53:30.123Z,954.08
2018-01-26T04:54:30.147Z,954.04
2018-01-26T04:55:30.156Z,954.04
2018-01-26T04:56:30.174Z,954.03
2018-01-26T04:57:30.193Z,954.02
2018-01-26T04:58:30.205Z,954.03
2018-01-26T04:59:30.222Z,954.04
2018-01-26T05:00:30.238Z,954.01
2018-01-26T05:01:30.255Z,953.95
2018-01-26T05:02:30.271Z,953.97
2018-01-26T05:03:30.290Z,953.97
2018-01-26T05:04:30.305Z,954
2018-01-26T05:05:30.321Z,954
2018-01-26T05:06:30.337Z,954.07
2018-01-26T05:07:30.353Z,954.05
2018-01-26T05:08:30.369Z,954.07
2018-01-26T05:09:30.385Z,954.11
2018-01-26T05:10:30.402Z,954.11
2018-01-26T05:11:30.418Z,954.13
2018-01-26T05:12:30.437Z,954.12
2018-01-26T05:13:30.454Z,954.1
2018-01-26T05:14:30.467Z,954.1
2018-01-26T05:15:30.488Z,954.15
2018-01-26T05:16:30.503Z,954.13
2018-01-26T05:17:30.517Z,954.1
2018-01-26T05:18:30.537Z,954.12
2018-01-26T05:19:30.550Z,954.13
2018-01-26T05:20:30.564Z,954.1
2018-01-26T05:21:30.600Z,954.13
2018-01-26T05:22:30.598Z,954.05
2018-01-26T05:23:30.619Z,954.1
2018-01-26T05:24:30.630Z,954.13
2018-01-26T05:25:30.646Z,954.12
2018-01-26T05:26:30.662Z,954.12
2018-01-26T05:27:30.678Z,954.12
2018-01-26T05:28:30.696Z,954.13
2018-01-26T05:29:30.710Z,954.14
2018-01-26T05:30:30.726Z,954.21
2018-01-26T05:31:30.742Z,954.19
2018-01-26T05:32:30.758Z,954.24
2018-01-26T05:33:30.776Z,954.22
2018-01-26T05:34:30.790Z,954.27
2018-01-26T05:35:30.805Z,954.24
2018-01-26T05:36:30.822Z,954.25
2018-01-26T05:37:30.844Z,954.23
2018-01-26T05:38:30.856Z,954.25
2018-01-26T05:39:30.872Z,954.23
2018-01-26T05:40:30.889Z,954.26
2018-01-26T05:41:30.904Z,954.31
2018-01-26T05:42:30.922Z,954.26
2018-01-26T05:43:30.950Z,954.29
2018-01-26T05:44:30.953Z,954.31
2018-01-26T05:45:30.969Z,954.34
2018-01-26T05:46:30.986Z,954.32
2018-01-26T05:47:31.000Z,954.32
2018-01-26T05:48:31.020Z,954.33
2018-01-26T05:49:31.032Z,954.35
2018-01-26T05:50:31.047Z,954.37
2018-01-26T05:51:31.068Z,954.37
2018-01-26T05:52:31.081Z,954.38
2018-01-26T05:53:31.097Z,954.42
2018-01-26T05:54:31.115Z,954.41
2018-01-26T05:55:31.130Z,954.4
2018-01-26T05:56:31.148Z,954.47
2018-01-26T05:57:31.161Z,954.44
2018-01-26T05:58:31.176Z,954.47
2018-01-26T05:59:31.194Z,954.45
2018-01-26T06:00:31.208Z,954.41
2018-01-26T06:01:31.225Z,954.47
2018-01-26T06:02:31.241Z,954.5
2018-01-26T06:03:31.259Z,954.51
2018-01-26T06:04:31.273Z,954.56
2018-01-26T06:05:31.300Z,954.61
2018-01-26T06:06:31.307Z,954.61
2018-01-26T06:07:31.322Z,954.6
2018-01-26T06:08:31.338Z,954.58
2018-01-26T06:09:31.355Z,954.61
2018-01-26T06:10:31.370Z,954.64
2018-01-26T06:11:31.385Z,954.65
2018-01-26T06:12:31.402Z,954.66
2018-01-26T06:13:31.419Z,954.64
2018-01-26T06:14:31.434Z,954.66
2018-01-26T06:15:31.449Z,954.67
2018-01-26T06:16:31.467Z,954.65
2018-01-26T06:17:31.515Z,954.71
2018-01-26T06:18:31.499Z,954.7
2018-01-26T06:19:31.514Z,954.66
2018-01-26T06:20:31.531Z,954.64
2018-01-26T06:21:31.547Z,954.63
2018-01-26T06:22:31.562Z,954.62
2018-01-26T06:23:31.580Z,954.63
2018-01-26T06:24:31.596Z,954.62
2018-01-26T06:25:31.611Z,954.63
2018-01-26T06:26:31.627Z,954.61
2018-01-26T06:27:31.651Z,954.66
2018-01-26T06:28:31.658Z,954.59
2018-01-26T06:29:31.675Z,954.58
2018-01-26T06:30:31.692Z,954.59
2018-01-26T06:31:31.711Z,954.62
2018-01-26T06:32:31.731Z,954.56
2018-01-26T06:33:31.740Z,954.56
2018-01-26T06:34:31.777Z,954.61
2018-01-26T06:35:31.774Z,954.61
2018-01-26T06:36:31.789Z,954.56
2018-01-26T06:37:31.803Z,954.54
2018-01-26T06:38:31.821Z,954.56
2018-01-26T06:39:31.836Z,954.53
2018-01-26T06:40:31.853Z,954.48
2018-01-26T06:41:31.867Z,954.46
2018-01-26T06:42:31.885Z,954.48
2018-01-26T06:43:31.900Z,954.44
2018-01-26T06:44:31.916Z,954.4
2018-01-26T06:45:31.932Z,954.37
2018-01-26T06:46:31.949Z,954.31
2018-01-26T06:47:31.967Z,954.35
2018-01-26T06:48:31.979Z,954.36
2018-01-26T06:49:32.003Z,954.34
2018-01-26T06:50:32.013Z,954.37
2018-01-26T06:51:32.027Z,954.37
2018-01-26T06:52:32.043Z,954.35
2018-01-26T06:53:32.062Z,954.34
2018-01-26T06:54:32.077Z,954.32
2018-01-26T06:55:32.091Z,954.36
2018-01-26T06:56:32.129Z,954.33
2018-01-26T06:57:32.124Z,954.36
2018-01-26T06:58:32.140Z,954.35
2018-01-26T06:59:32.154Z,954.4
2018-01-26T07:00:32.172Z,954.42
2018-01-26T07:01:32.187Z,954.44
2018-01-26T07:02:32.202Z,954.41
2018-01-26T07:03:32.219Z,954.42
2018-01-26T07:04:32.234Z,954.37
2018-01-26T07:05:32.252Z,954.4
2018-01-26T07:06:32.265Z,954.33
2018-01-26T07:07:32.281Z,954.38
2018-01-26T07:08:32.298Z,954.41
2018-01-26T07:09:32.315Z,954.35
2018-01-26T07:10:32.330Z,954.37
2018-01-26T07:11:32.354Z,954.36
2018-01-26T07:12:32.361Z,954.37
2018-01-26T07:13:32.376Z,954.41
2018-01-26T07:14:32.393Z,954.34
2018-01-26T07:15:32.409Z,954.35
2018-01-26T07:16:32.426Z,954.33
2018-01-26T07:17:32.440Z,954.36
2018-01-26T07:18:32.478Z,954.38
2018-01-26T07:19:32.473Z,954.37
2018-01-26T07:20:32.490Z,954.37
2018-01-26T07:21:32.505Z,954.39
2018-01-26T07:22:32.521Z,954.35
2018-01-26T07:23:32.537Z,954.32
2018-01-26T07:24:32.554Z,954.3
2018-01-26T07:25:32.568Z,954.31
2018-01-26T07:26:32.584Z,954.31
2018-01-26T07:27:32.601Z,954.29
2018-01-26T07:28:32.616Z,954.28
2018-01-26T07:29:32.633Z,954.32
2018-01-26T07:30:32.647Z,954.31
2018-01-26T07:31:32.664Z,954.34
2018-01-26T07:32:32.679Z,954.35
2018-01-26T07:33:32.705Z,954.39
2018-01-26T07:34:32.713Z,954.43
2018-01-26T07:35:32.726Z,954.51
2018-01-26T07:36:32.744Z,954.54
2018-01-26T07:37:32.766Z,954.52
2018-01-26T07:38:32.776Z,954.56
2018-01-26T07:39:32.791Z,954.56
2018-01-26T07:40:32.830Z,954.58
2018-01-26T07:41:32.825Z,954.55
2018-01-26T07:42:32.840Z,954.54
2018-01-26T07:43:32.896Z,954.58
2018-01-26T07:44:32.871Z,954.57
2018-01-26T07:45:32.887Z,954.57
2018-01-26T07:46:32.902Z,954.59
2018-01-26T07:47:32.920Z,954.56
2018-01-26T07:48:32.938Z,954.55
2018-01-26T07:49:32.954Z,954.52
2018-01-26T07:50:32.970Z,954.55
2018-01-26T07:51:32.985Z,954.5
2018-01-26T07:52:33.000Z,954.51
2018-01-26T07:53:33.017Z,954.52
2018-01-26T07:54:33.032Z,954.54
2018-01-26T07:55:33.057Z,954.55
2018-01-26T07:56:33.066Z,954.57
2018-01-26T07:57:33.080Z,954.62
2018-01-26T07:58:33.098Z,954.6
2018-01-26T07:59:33.113Z,954.66
2018-01-26T08:00:33.134Z,954.66
2018-01-26T08:01:33.145Z,954.67
2018-01-26T08:02:33.181Z,954.69
2018-01-26T08:03:33.178Z,954.65
2018-01-26T08:04:33.221Z,954.7
2018-01-26T08:05:33.211Z,954.71
2018-01-26T08:06:33.228Z,954.7
2018-01-26T08:07:33.246Z,954.67
2018-01-26T08:08:33.260Z,954.63
2018-01-26T08:09:33.277Z,954.6
2018-01-26T08:10:33.294Z,954.64
2018-01-26T08:11:33.312Z,954.61
2018-01-26T08:12:33.334Z,954.6
2018-01-26T08:13:33.349Z,954.64
2018-01-26T08:14:33.360Z,954.6
2018-01-26T08:15:33.377Z,954.64
2018-01-26T08:16:33.393Z,954.66
2018-01-26T08:17:33.411Z,954.66
2018-01-26T08:18:33.426Z,954.67
2018-01-26T08:19:33.443Z,954.71
2018-01-26T08:20:33.459Z,954.72
2018-01-26T08:21:33.476Z,954.76
2018-01-26T08:22:33.493Z,954.74
2018-01-26T08:23:33.511Z,954.71
2018-01-26T08:24:33.533Z,954.73
2018-01-26T08:25:33.544Z,954.72
2018-01-26T08:26:33.559Z,954.72
2018-01-26T08:27:33.576Z,954.69
2018-01-26T08:28:33.593Z,954.75
2018-01-26T08:29:33.609Z,954.76
2018-01-26T08:30:33.626Z,954.75
2018-01-26T08:31:33.644Z,954.78
2018-01-26T08:32:33.660Z,954.75
2018-01-26T08:33:33.677Z,954.81
2018-01-26T08:34:33.694Z,954.75
2018-01-26T08:35:33.711Z,954.72
2018-01-26T08:36:33.729Z,954.7
2018-01-26T08:37:33.743Z,954.69
2018-01-26T08:38:33.761Z,954.61
2018-01-26T08:39:33.780Z,954.62
2018-01-26T08:40:33.796Z,954.57
2018-01-26T08:41:33.812Z,954.52
2018-01-26T08:42:33.829Z,954.55
2018-01-26T08:43:33.848Z,954.53
2018-01-26T08:44:33.864Z,954.54
2018-01-26T08:45:33.881Z,954.56
2018-01-26T08:46:33.899Z,954.58
2018-01-26T08:47:33.917Z,954.61
2018-01-26T08:48:33.932Z,954.63
2018-01-26T08:49:33.950Z,954.66
2018-01-26T08:50:33.968Z,954.72
2018-01-26T08:51:33.984Z,954.73
2018-01-26T08:52:34.001Z,954.74
2018-01-26T08:53:34.020Z,954.77
2018-01-26T08:54:34.056Z,954.76
2018-01-26T08:55:34.054Z,954.82
2018-01-26T08:56:34.070Z,954.83
2018-01-26T08:57:34.089Z,954.85
2018-01-26T08:58:34.107Z,954.81
2018-01-26T08:59:34.124Z,954.86
2018-01-26T09:00:34.193Z,954.87
2018-01-26T09:01:34.168Z,954.86
2018-01-26T09:02:34.177Z,954.88
2018-01-26T09:03:34.195Z,954.91
2018-01-26T09:04:34.212Z,954.92
2018-01-26T09:05:34.231Z,954.93
2018-01-26T09:06:34.249Z,954.94
2018-01-26T09:07:34.265Z,954.94
2018-01-26T09:08:34.283Z,954.96
2018-01-26T09:09:34.302Z,955
2018-01-26T09:10:34.321Z,954.93
2018-01-26T09:11:34.338Z,954.93
2018-01-26T09:12:34.355Z,954.94
2018-01-26T09:13:34.377Z,954.92
2018-01-26T09:14:34.390Z,954.96
2018-01-26T09:15:34.409Z,954.91
2018-01-26T09:16:34.428Z,954.97
2018-01-26T09:17:34.447Z,954.99
2018-01-26T09:18:34.463Z,954.98
2018-01-26T09:19:34.484Z,955.02
2018-01-26T09:20:34.500Z,955.03
2018-01-26T09:21:34.543Z,955
2018-01-26T09:22:34.539Z,954.97
2018-01-26T09:23:34.555Z,954.95
2018-01-26T09:24:34.572Z,954.94
2018-01-26T09:25:34.590Z,954.94
2018-01-26T09:26:34.609Z,954.98
2018-01-26T09:27:34.628Z,955.01
2018-01-26T09:28:34.645Z,954.96
2018-01-26T09:29:34.662Z,954.97
2018-01-26T09:30:34.681Z,954.98
2018-01-26T09:31:34.700Z,955
2018-01-26T09:32:34.722Z,954.98
2018-01-26T09:33:34.737Z,954.97
2018-01-26T09:34:34.755Z,954.94
2018-01-26T09:35:34.775Z,954.92
2018-01-26T09:36:34.791Z,954.93
2018-01-26T09:37:34.809Z,954.96
2018-01-26T09:38:34.831Z,954.93
2018-01-26T09:39:34.850Z,954.98
2018-01-26T09:40:34.867Z,954.96
2018-01-26T09:41:34.886Z,955.01
2018-01-26T09:42:34.905Z,955.01
2018-01-26T09:43:34.922Z,954.98
2018-01-26T09:44:34.940Z,954.97
2018-01-26T09:45:34.958Z,954.95
2018-01-26T09:46:34.978Z,954.94
2018-01-26T09:47:34.996Z,954.93
2018-01-26T09:48:35.028Z,954.91
2018-01-26T09:49:35.036Z,954.88
2018-01-26T09:50:35.052Z,954.92
2018-01-26T09:51:35.071Z,954.92
2018-01-26T09:52:35.093Z,954.95
2018-01-26T09:53:35.112Z,954.96
2018-01-26T09:54:35.125Z,954.95
2018-01-26T09:55:35.146Z,954.96
2018-01-26T09:56:35.165Z,954.94
2018-01-26T09:57:35.183Z,954.96
2018-01-26T09:58:35.201Z,954.92
2018-01-26T09:59:35.221Z,954.94
2018-01-26T10:00:35.239Z,954.94
2018-01-26T10:01:35.262Z,954.96
2018-01-26T10:02:35.278Z,954.98
2018-01-26T10:03:35.297Z,955
2018-01-26T10:04:35.315Z,955.02
2018-01-26T10:05:35.333Z,955
2018-01-26T10:06:35.352Z,955.01
2018-01-26T10:07:35.371Z,955.09
2018-01-26T10:08:35.392Z,955.1
2018-01-26T10:09:35.410Z,955.1
2018-01-26T10:10:35.430Z,955.14
2018-01-26T10:11:35.448Z,955.17
2018-01-26T10:12:35.467Z,955.17
2018-01-26T10:13:35.486Z,955.21
2018-01-26T10:14:35.507Z,955.27
2018-01-26T10:15:35.525Z,955.27
2018-01-26T10:16:35.546Z,955.22
2018-01-26T10:17:35.565Z,955.29
2018-01-26T10:18:35.584Z,955.31
2018-01-26T10:19:35.609Z,955.2
2018-01-26T10:20:35.625Z,955.26
2018-01-26T10:21:35.646Z,955.22
2018-01-26T10:22:35.868Z,955.18
2018-01-26T10:23:35.819Z,955.23
2018-01-26T10:24:35.709Z,955.28
2018-01-26T10:25:35.727Z,955.24
2018-01-26T10:26:35.754Z,955.29
2018-01-26T10:27:35.770Z,955.33
2018-01-26T10:28:35.791Z,955.34
2018-01-26T10:29:35.813Z,955.36
2018-01-26T10:30:35.834Z,955.37
2018-01-26T10:31:35.854Z,955.37
2018-01-26T10:32:35.877Z,955.38
2018-01-26T10:33:35.898Z,955.42
2018-01-26T10:34:35.921Z,955.34
2018-01-26T10:35:35.943Z,955.35
2018-01-26T10:36:35.965Z,955.38
2018-01-26T10:37:35.988Z,955.38
2018-01-26T10:38:36.011Z,955.38
2018-01-26T10:39:36.042Z,955.38
2018-01-26T10:40:36.056Z,955.35
2018-01-26T10:41:36.081Z,955.35
2018-01-26T10:42:36.104Z,955.35
2018-01-26T10:43:36.128Z,955.33
2018-01-26T10:44:36.152Z,955.31
2018-01-26T10:45:36.174Z,955.38
2018-01-26T10:46:36.198Z,955.36
2018-01-26T10:47:36.226Z,955.39
2018-01-26T10:48:36.249Z,955.4
2018-01-26T10:49:36.269Z,955.43
2018-01-26T10:50:36.294Z,955.46
2018-01-26T10:51:36.317Z,955.45
2018-01-26T10:52:36.342Z,955.47
2018-01-26T10:53:36.364Z,955.48
2018-01-26T10:54:36.389Z,955.43
2018-01-26T10:55:36.412Z,955.43
2018-01-26T10:56:36.437Z,955.41
2018-01-26T10:57:36.461Z,955.45
2018-01-26T10:58:36.483Z,955.47
2018-01-26T10:59:36.509Z,955.45
2018-01-26T11:00:36.531Z,955.48
2018-01-26T11:01:36.555Z,955.51
2018-01-26T11:02:36.602Z,955.5
2018-01-26T11:03:36.602Z,955.5
2018-01-26T11:04:36.624Z,955.49
2018-01-26T11:05:36.648Z,955.5
2018-01-26T11:06:36.671Z,955.49
2018-01-26T11:07:36.693Z,955.49
2018-01-26T11:08:36.717Z,955.49
2018-01-26T11:09:36.741Z,955.51
2018-01-26T11:10:36.766Z,955.58
2018-01-26T11:11:36.788Z,955.6
2018-01-26T11:12:36.812Z,955.66
2018-01-26T11:13:36.836Z,955.71
2018-01-26T11:14:36.861Z,955.66
2018-01-26T11:15:36.885Z,955.67
2018-01-26T11:16:36.909Z,955.7
2018-01-26T11:17:36.933Z,955.66
2018-01-26T11:18:36.983Z,955.66
2018-01-26T11:19:36.982Z,955.68
2018-01-26T11:20:37.008Z,955.68
2018-01-26T11:21:37.032Z,955.72
2018-01-26T11:22:37.057Z,955.75
2018-01-26T11:23:37.082Z,955.83
2018-01-26T11:24:37.107Z,955.88
2018-01-26T11:25:37.130Z,955.85
2018-01-26T11:26:37.156Z,955.94
2018-01-26T11:27:37.183Z,955.9
2018-01-26T11:28:37.209Z,955.95
2018-01-26T11:29:37.234Z,955.97
2018-01-26T11:30:37.258Z,955.97
2018-01-26T11:31:37.285Z,955.93
2018-01-26T11:32:37.310Z,955.93
2018-01-26T11:33:37.371Z,955.93
2018-01-26T11:34:37.362Z,955.96
2018-01-26T11:35:37.389Z,956
2018-01-26T11:36:37.415Z,956
2018-01-26T11:37:37.441Z,955.98
2018-01-26T11:38:37.468Z,956
2018-01-26T11:39:37.496Z,956.03
2018-01-26T11:40:37.523Z,956.09
2018-01-26T11:41:37.561Z,956.13
2018-01-26T11:42:37.576Z,956.1
2018-01-26T11:43:37.604Z,956.04
2018-01-26T11:44:37.632Z,956.07
2018-01-26T11:45:37.659Z,956.02
2018-01-26T11:46:37.735Z,956.1
2018-01-26T11:47:37.713Z,956.07
2018-01-26T11:48:37.743Z,956.09
2018-01-26T11:49:37.774Z,956.14
2018-01-26T11:50:37.799Z,956.12
2018-01-26T11:51:37.827Z,956.12
2018-01-26T11:52:37.855Z,956.1
2018-01-26T11:53:37.886Z,956.16
2018-01-26T11:54:37.915Z,956.24
2018-01-26T11:55:37.942Z,956.21
2018-01-26T11:56:37.974Z,956.29
2018-01-26T11:57:38.003Z,956.27
2018-01-26T11:58:38.031Z,956.3
2018-01-26T11:59:38.063Z,956.29
2018-01-26T12:00:38.093Z,956.32
2018-01-26T12:01:38.123Z,956.25
2018-01-26T12:02:38.151Z,956.27
2018-01-26T12:03:38.181Z,956.2
2018-01-26T12:04:38.212Z,956.22
2018-01-26T12:05:38.244Z,956.17
2018-01-26T12:06:38.290Z,956.22
2018-01-26T12:07:38.304Z,956.26
2018-01-26T12:08:38.337Z,956.3
2018-01-26T12:09:38.367Z,956.23
2018-01-26T12:10:38.399Z,956.39
2018-01-26T12:11:38.435Z,956.4
2018-01-26T12:12:38.462Z,956.4
2018-01-26T12:13:38.492Z,956.31
2018-01-26T12:14:38.525Z,956.5
2018-01-26T12:15:38.554Z,956.41
2018-01-26T12:16:38.587Z,956.16
2018-01-26T12:17:38.616Z,956.32
2018-01-26T12:18:38.648Z,956.26
2018-01-26T12:19:38.681Z,956.09
2018-01-26T12:20:38.711Z,956.06
2018-01-26T12:21:38.741Z,956.28
2018-01-26T12:22:38.787Z,956.45
2018-01-26T12:23:39.153Z,956.41
2018-01-26T12:24:38.927Z,956.52
2018-01-26T12:25:38.948Z,956.56
2018-01-26T12:26:38.977Z,956.59
2018-01-26T12:27:39.023Z,956.58
2018-01-26T12:28:39.032Z,956.61
2018-01-26T12:29:39.076Z,956.69
2018-01-26T12:30:39.119Z,956.6
2018-01-26T12:31:39.146Z,956.67